sensor_id;sensor_type;location;lat;lon;timestamp;temperature;humidity
66582;SHT31;53438;48.898;2.308;2023-11-19T00:00:06;15.02;90.70
66582;SHT31;53438;48.898;2.308;2023-11-19T00:02:36;15.03;90.67
66582;SHT31;53438;48.898;2.308;2023-11-19T00:05:01;15.00;90.59
66582;SHT31;53438;48.898;2.308;2023-11-19T00:07:26;15.06;90.42
66582;SHT31;53438;48.898;2.308;2023-11-19T00:09:52;15.06;90.29
66582;SHT31;53438;48.898;2.308;2023-11-19T00:12:17;15.00;90.53
66582;SHT31;53438;48.898;2.308;2023-11-19T00:14:43;15.06;90.47
66582;SHT31;53438;48.898;2.308;2023-11-19T00:17:09;15.04;90.53
66582;SHT31;53438;48.898;2.308;2023-11-19T00:19:34;15.04;90.47
66582;SHT31;53438;48.898;2.308;2023-11-19T00:22:00;15.16;90.29
66582;SHT31;53438;48.898;2.308;2023-11-19T00:24:29;15.13;90.19
66582;SHT31;53438;48.898;2.308;2023-11-19T00:26:55;15.14;90.29
66582;SHT31;53438;48.898;2.308;2023-11-19T00:29:21;15.13;90.12
66582;SHT31;53438;48.898;2.308;2023-11-19T00:31:46;15.13;90.01
66582;SHT31;53438;48.898;2.308;2023-11-19T00:34:12;15.16;90.10
66582;SHT31;53438;48.898;2.308;2023-11-19T00:36:37;15.13;90.05
66582;SHT31;53438;48.898;2.308;2023-11-19T00:39:02;15.13;90.11
66582;SHT31;53438;48.898;2.308;2023-11-19T00:41:28;15.13;90.28
66582;SHT31;53438;48.898;2.308;2023-11-19T00:43:53;15.09;90.27
66582;SHT31;53438;48.898;2.308;2023-11-19T00:46:18;15.14;90.18
66582;SHT31;53438;48.898;2.308;2023-11-19T00:48:45;15.14;90.07
66582;SHT31;53438;48.898;2.308;2023-11-19T00:51:12;15.14;90.13
66582;SHT31;53438;48.898;2.308;2023-11-19T00:53:38;15.14;90.15
66582;SHT31;53438;48.898;2.308;2023-11-19T00:56:03;15.16;89.90
66582;SHT31;53438;48.898;2.308;2023-11-19T00:58:28;15.12;90.13
66582;SHT31;53438;48.898;2.308;2023-11-19T04:02:39;14.76;88.81
66582;SHT31;53438;48.898;2.308;2023-11-19T04:05:04;14.85;88.85
66582;SHT31;53438;48.898;2.308;2023-11-19T04:07:30;14.82;88.65
66582;SHT31;53438;48.898;2.308;2023-11-19T04:09:56;14.81;88.57
66582;SHT31;53438;48.898;2.308;2023-11-19T04:12:22;14.79;88.60
66582;SHT31;53438;48.898;2.308;2023-11-19T04:14:47;14.73;88.51
66582;SHT31;53438;48.898;2.308;2023-11-19T04:17:12;14.72;88.40
66582;SHT31;53438;48.898;2.308;2023-11-19T04:19:38;14.65;88.56
66582;SHT31;53438;48.898;2.308;2023-11-19T04:22:04;14.79;88.29
66582;SHT31;53438;48.898;2.308;2023-11-19T04:24:29;14.76;88.16
66582;SHT31;53438;48.898;2.308;2023-11-19T04:26:54;14.60;88.00
66582;SHT31;53438;48.898;2.308;2023-11-19T04:29:20;14.55;87.71
66582;SHT31;53438;48.898;2.308;2023-11-19T04:31:45;14.52;87.92
66582;SHT31;53438;48.898;2.308;2023-11-19T04:34:11;14.55;87.60
66582;SHT31;53438;48.898;2.308;2023-11-19T04:36:37;14.58;86.82
66582;SHT31;53438;48.898;2.308;2023-11-19T04:39:03;14.51;86.90
66582;SHT31;53438;48.898;2.308;2023-11-19T04:41:34;14.51;86.75
66582;SHT31;53438;48.898;2.308;2023-11-19T04:43:59;14.57;86.65
66582;SHT31;53438;48.898;2.308;2023-11-19T04:46:24;14.49;86.69
66582;SHT31;53438;48.898;2.308;2023-11-19T04:48:50;14.44;87.13
66582;SHT31;53438;48.898;2.308;2023-11-19T04:51:16;14.48;87.10
66582;SHT31;53438;48.898;2.308;2023-11-19T04:53:41;14.45;87.06
66582;SHT31;53438;48.898;2.308;2023-11-19T04:56:10;14.38;86.97
66582;SHT31;53438;48.898;2.308;2023-11-19T04:58:36;14.34;87.02
66582;SHT31;53438;48.898;2.308;2023-11-19T05:01:02;14.38;86.54
66582;SHT31;53438;48.898;2.308;2023-11-19T05:03:28;14.38;85.90
66582;SHT31;53438;48.898;2.308;2023-11-19T05:05:54;14.37;85.92
66582;SHT31;53438;48.898;2.308;2023-11-19T05:08:19;14.44;85.81
66582;SHT31;53438;48.898;2.308;2023-11-19T05:10:44;14.45;85.53
66582;SHT31;53438;48.898;2.308;2023-11-19T05:13:10;14.38;85.90
66582;SHT31;53438;48.898;2.308;2023-11-19T05:15:35;14.40;86.15
66582;SHT31;53438;48.898;2.308;2023-11-19T05:18:00;14.35;86.31
66582;SHT31;53438;48.898;2.308;2023-11-19T05:20:26;14.37;86.46
66582;SHT31;53438;48.898;2.308;2023-11-19T05:22:51;14.42;86.37
66582;SHT31;53438;48.898;2.308;2023-11-19T05:25:18;14.42;86.00
66582;SHT31;53438;48.898;2.308;2023-11-19T05:27:45;14.40;86.01
66582;SHT31;53438;48.898;2.308;2023-11-19T05:30:10;14.28;85.31
66582;SHT31;53438;48.898;2.308;2023-11-19T05:32:36;14.25;85.33
66582;SHT31;53438;48.898;2.308;2023-11-19T05:35:01;14.25;85.25
66582;SHT31;53438;48.898;2.308;2023-11-19T05:37:27;14.25;85.37
66582;SHT31;53438;48.898;2.308;2023-11-19T05:39:52;14.28;85.24
66582;SHT31;53438;48.898;2.308;2023-11-19T05:42:17;14.32;85.19
66582;SHT31;53438;48.898;2.308;2023-11-19T05:44:43;14.24;85.05
66582;SHT31;53438;48.898;2.308;2023-11-19T05:47:08;14.24;85.12
66582;SHT31;53438;48.898;2.308;2023-11-19T05:49:33;14.16;85.11
66582;SHT31;53438;48.898;2.308;2023-11-19T05:51:59;14.24;85.66
66582;SHT31;53438;48.898;2.308;2023-11-19T05:54:24;14.17;85.80
66582;SHT31;53438;48.898;2.308;2023-11-19T05:56:50;14.14;85.86
66582;SHT31;53438;48.898;2.308;2023-11-19T05:59:19;14.17;85.83
66582;SHT31;53438;48.898;2.308;2023-11-19T06:01:44;14.11;85.68
66582;SHT31;53438;48.898;2.308;2023-11-19T06:04:09;14.09;85.35
66582;SHT31;53438;48.898;2.308;2023-11-19T06:06:36;14.14;85.74
66582;SHT31;53438;48.898;2.308;2023-11-19T06:09:01;14.06;85.48
66582;SHT31;53438;48.898;2.308;2023-11-19T06:11:27;14.06;85.04
66582;SHT31;53438;48.898;2.308;2023-11-19T06:13:53;14.00;85.44
66582;SHT31;53438;48.898;2.308;2023-11-19T06:16:19;13.99;85.45
66582;SHT31;53438;48.898;2.308;2023-11-19T06:18:44;14.00;85.42
66582;SHT31;53438;48.898;2.308;2023-11-19T06:21:10;13.97;85.26
66582;SHT31;53438;48.898;2.308;2023-11-19T06:23:36;13.97;85.20
66582;SHT31;53438;48.898;2.308;2023-11-19T06:26:02;13.90;85.25
66582;SHT31;53438;48.898;2.308;2023-11-19T06:28:28;13.96;85.42
66582;SHT31;53438;48.898;2.308;2023-11-19T06:30:53;14.06;85.29
66582;SHT31;53438;48.898;2.308;2023-11-19T06:33:18;14.03;84.99
66582;SHT31;53438;48.898;2.308;2023-11-19T06:35:44;14.04;84.73
66582;SHT31;53438;48.898;2.308;2023-11-19T06:38:10;14.13;84.80
66582;SHT31;53438;48.898;2.308;2023-11-19T06:40:36;14.17;84.13
66582;SHT31;53438;48.898;2.308;2023-11-19T06:43:01;13.94;84.03
66582;SHT31;53438;48.898;2.308;2023-11-19T06:45:29;13.83;84.11
66582;SHT31;53438;48.898;2.308;2023-11-19T06:47:54;13.87;84.22
66582;SHT31;53438;48.898;2.308;2023-11-19T06:50:20;14.00;84.14
66582;SHT31;53438;48.898;2.308;2023-11-19T06:52:46;14.01;83.36
66582;SHT31;53438;48.898;2.308;2023-11-19T06:55:11;14.03;83.04
66582;SHT31;53438;48.898;2.308;2023-11-19T06:57:37;13.99;83.04
66582;SHT31;53438;48.898;2.308;2023-11-19T07:00:03;14.04;82.85
66582;SHT31;53438;48.898;2.308;2023-11-19T07:02:30;13.96;82.26
66582;SHT31;53438;48.898;2.308;2023-11-19T07:04:56;13.94;82.79
66582;SHT31;53438;48.898;2.308;2023-11-19T07:07:21;13.90;82.82
66582;SHT31;53438;48.898;2.308;2023-11-19T07:09:46;13.91;82.92
66582;SHT31;53438;48.898;2.308;2023-11-19T07:12:13;13.96;82.90
66582;SHT31;53438;48.898;2.308;2023-11-19T07:14:39;13.94;82.86
66582;SHT31;53438;48.898;2.308;2023-11-19T07:17:04;13.93;83.10
66582;SHT31;53438;48.898;2.308;2023-11-19T07:19:30;13.96;83.16
66582;SHT31;53438;48.898;2.308;2023-11-19T07:21:55;13.82;82.85
66582;SHT31;53438;48.898;2.308;2023-11-19T07:24:21;13.89;82.48
66582;SHT31;53438;48.898;2.308;2023-11-19T07:26:47;13.84;82.52
66582;SHT31;53438;48.898;2.308;2023-11-19T07:29:13;13.77;82.60
66582;SHT31;53438;48.898;2.308;2023-11-19T07:31:38;13.82;82.89
66582;SHT31;53438;48.898;2.308;2023-11-19T07:34:04;13.86;82.34
66582;SHT31;53438;48.898;2.308;2023-11-19T07:36:31;13.83;82.19
66582;SHT31;53438;48.898;2.308;2023-11-19T07:38:58;13.87;81.72
66582;SHT31;53438;48.898;2.308;2023-11-19T07:41:23;13.83;82.19
66582;SHT31;53438;48.898;2.308;2023-11-19T07:43:50;13.93;81.50
66582;SHT31;53438;48.898;2.308;2023-11-19T07:46:17;13.89;81.78
66582;SHT31;53438;48.898;2.308;2023-11-19T07:48:44;13.90;81.55
66582;SHT31;53438;48.898;2.308;2023-11-19T07:51:11;13.93;81.69
66582;SHT31;53438;48.898;2.308;2023-11-19T07:53:38;13.90;81.50
66582;SHT31;53438;48.898;2.308;2023-11-19T07:56:04;13.84;82.10
66582;SHT31;53438;48.898;2.308;2023-11-19T07:58:30;13.89;82.32
66582;SHT31;53438;48.898;2.308;2023-11-19T08:00:56;13.87;81.79
66582;SHT31;53438;48.898;2.308;2023-11-19T08:03:21;13.90;81.95
66582;SHT31;53438;48.898;2.308;2023-11-19T08:05:47;13.73;82.09
66582;SHT31;53438;48.898;2.308;2023-11-19T08:08:13;13.87;82.26
66582;SHT31;53438;48.898;2.308;2023-11-19T08:10:38;13.86;81.87
66582;SHT31;53438;48.898;2.308;2023-11-19T08:13:05;13.84;81.99
66582;SHT31;53438;48.898;2.308;2023-11-19T08:15:30;14.01;82.09
66582;SHT31;53438;48.898;2.308;2023-11-19T08:17:55;13.90;81.52
66582;SHT31;53438;48.898;2.308;2023-11-19T08:20:21;13.90;81.53
66582;SHT31;53438;48.898;2.308;2023-11-19T08:22:47;13.77;81.75
66582;SHT31;53438;48.898;2.308;2023-11-19T08:25:12;13.76;81.95
66582;SHT31;53438;48.898;2.308;2023-11-19T08:27:38;13.83;81.91
66582;SHT31;53438;48.898;2.308;2023-11-19T08:30:04;13.79;81.28
66582;SHT31;53438;48.898;2.308;2023-11-19T08:32:31;13.90;81.27
66582;SHT31;53438;48.898;2.308;2023-11-19T08:34:56;13.91;81.23
66582;SHT31;53438;48.898;2.308;2023-11-19T08:37:22;13.86;81.40
66582;SHT31;53438;48.898;2.308;2023-11-19T08:39:48;13.84;80.88
66582;SHT31;53438;48.898;2.308;2023-11-19T08:42:13;14.09;81.10
66582;SHT31;53438;48.898;2.308;2023-11-19T08:44:39;13.93;80.87
66582;SHT31;53438;48.898;2.308;2023-11-19T08:47:05;14.10;80.84
66582;SHT31;53438;48.898;2.308;2023-11-19T08:49:31;14.20;80.11
66582;SHT31;53438;48.898;2.308;2023-11-19T08:51:56;14.17;80.27
66582;SHT31;53438;48.898;2.308;2023-11-19T08:54:21;14.13;80.23
66582;SHT31;53438;48.898;2.308;2023-11-19T08:56:48;14.17;80.40
66582;SHT31;53438;48.898;2.308;2023-11-19T08:59:13;14.01;79.69
66582;SHT31;53438;48.898;2.308;2023-11-19T09:01:40;14.16;79.83
66582;SHT31;53438;48.898;2.308;2023-11-19T09:04:06;14.09;80.38
66582;SHT31;53438;48.898;2.308;2023-11-19T09:06:31;13.93;80.28
66582;SHT31;53438;48.898;2.308;2023-11-19T09:08:57;13.97;80.78
66582;SHT31;53438;48.898;2.308;2023-11-19T09:11:25;14.14;80.08
66582;SHT31;53438;48.898;2.308;2023-11-19T09:13:51;13.93;79.79
66582;SHT31;53438;48.898;2.308;2023-11-19T09:16:16;13.96;80.03
66582;SHT31;53438;48.898;2.308;2023-11-19T09:18:41;14.06;79.75
66582;SHT31;53438;48.898;2.308;2023-11-19T09:21:07;14.23;79.49
66582;SHT31;53438;48.898;2.308;2023-11-19T09:23:32;14.07;79.64
66582;SHT31;53438;48.898;2.308;2023-11-19T09:26:04;14.09;79.36
66582;SHT31;53438;48.898;2.308;2023-11-19T09:28:30;14.09;78.64
66582;SHT31;53438;48.898;2.308;2023-11-19T09:30:55;14.04;78.24
66582;SHT31;53438;48.898;2.308;2023-11-19T09:33:21;14.04;78.30
66582;SHT31;53438;48.898;2.308;2023-11-19T09:35:46;14.14;78.63
66582;SHT31;53438;48.898;2.308;2023-11-19T09:38:11;14.03;78.01
66582;SHT31;53438;48.898;2.308;2023-11-19T09:40:37;14.18;78.35
66582;SHT31;53438;48.898;2.308;2023-11-19T09:43:03;14.07;77.31
66582;SHT31;53438;48.898;2.308;2023-11-19T09:45:32;14.14;78.02
66582;SHT31;53438;48.898;2.308;2023-11-19T09:48:02;14.04;77.79
66582;SHT31;53438;48.898;2.308;2023-11-19T09:50:28;14.14;77.65
66582;SHT31;53438;48.898;2.308;2023-11-19T09:52:53;14.09;77.69
66582;SHT31;53438;48.898;2.308;2023-11-19T09:55:19;14.11;77.59
66582;SHT31;53438;48.898;2.308;2023-11-19T09:57:44;14.18;76.98
66582;SHT31;53438;48.898;2.308;2023-11-19T10:00:11;14.28;77.17
66582;SHT31;53438;48.898;2.308;2023-11-19T10:02:40;14.13;77.10
66582;SHT31;53438;48.898;2.308;2023-11-19T10:05:07;14.23;77.64
66582;SHT31;53438;48.898;2.308;2023-11-19T10:07:33;14.25;76.99
66582;SHT31;53438;48.898;2.308;2023-11-19T10:10:02;14.23;76.20
66582;SHT31;53438;48.898;2.308;2023-11-19T10:12:31;14.32;76.97
66582;SHT31;53438;48.898;2.308;2023-11-19T10:14:57;14.37;76.30
66582;SHT31;53438;48.898;2.308;2023-11-19T10:17:34;14.27;75.89
66582;SHT31;53438;48.898;2.308;2023-11-19T10:20:00;14.27;76.16
66582;SHT31;53438;48.898;2.308;2023-11-19T10:22:27;14.31;76.37
66582;SHT31;53438;48.898;2.308;2023-11-19T10:24:52;14.31;76.67
66582;SHT31;53438;48.898;2.308;2023-11-19T10:27:18;14.37;76.70
66582;SHT31;53438;48.898;2.308;2023-11-19T10:29:47;14.41;76.62
66582;SHT31;53438;48.898;2.308;2023-11-19T10:32:12;14.42;76.13
66582;SHT31;53438;48.898;2.308;2023-11-19T10:34:38;14.42;75.34
66582;SHT31;53438;48.898;2.308;2023-11-19T10:37:05;14.45;75.43
66582;SHT31;53438;48.898;2.308;2023-11-19T10:39:53;14.52;75.32
66582;SHT31;53438;48.898;2.308;2023-11-19T10:42:19;14.57;74.30
66582;SHT31;53438;48.898;2.308;2023-11-19T10:44:45;14.58;74.51
66582;SHT31;53438;48.898;2.308;2023-11-19T10:47:11;14.67;73.66
66582;SHT31;53438;48.898;2.308;2023-11-19T10:49:38;14.60;73.11
66582;SHT31;53438;48.898;2.308;2023-11-19T10:52:05;14.68;73.56
66582;SHT31;53438;48.898;2.308;2023-11-19T10:54:31;14.64;72.54
66582;SHT31;53438;48.898;2.308;2023-11-19T10:57:01;14.69;71.80
66582;SHT31;53438;48.898;2.308;2023-11-19T10:59:31;14.76;72.02
66582;SHT31;53438;48.898;2.308;2023-11-19T11:01:57;14.76;72.23
66582;SHT31;53438;48.898;2.308;2023-11-19T11:04:25;14.72;71.85
66582;SHT31;53438;48.898;2.308;2023-11-19T11:06:54;14.71;72.31
66582;SHT31;53438;48.898;2.308;2023-11-19T11:09:20;14.75;71.19
66582;SHT31;53438;48.898;2.308;2023-11-19T11:11:47;14.76;71.56
66582;SHT31;53438;48.898;2.308;2023-11-19T11:14:13;14.86;72.32
66582;SHT31;53438;48.898;2.308;2023-11-19T11:16:46;14.91;72.38
66582;SHT31;53438;48.898;2.308;2023-11-19T11:19:12;14.83;72.19
66582;SHT31;53438;48.898;2.308;2023-11-19T11:21:43;14.88;71.63
66582;SHT31;53438;48.898;2.308;2023-11-19T11:24:16;14.81;69.99
66582;SHT31;53438;48.898;2.308;2023-11-19T11:35:43;14.81;70.77
66582;SHT31;53438;48.898;2.308;2023-11-19T11:38:14;14.86;70.38
66582;SHT31;53438;48.898;2.308;2023-11-19T11:40:39;14.82;70.50
66582;SHT31;53438;48.898;2.308;2023-11-19T11:46:09;14.85;68.81
66582;SHT31;53438;48.898;2.308;2023-11-19T11:48:54;14.86;69.28
66582;SHT31;53438;48.898;2.308;2023-11-19T11:57:10;15.04;67.80
66582;SHT31;53438;48.898;2.308;2023-11-19T12:02:11;15.13;67.34
66582;SHT31;53438;48.898;2.308;2023-11-19T12:04:37;15.09;67.18
66582;SHT31;53438;48.898;2.308;2023-11-19T12:07:29;15.20;66.83
66582;SHT31;53438;48.898;2.308;2023-11-19T12:10:08;15.19;67.47
66582;SHT31;53438;48.898;2.308;2023-11-19T12:12:34;15.24;66.09
66582;SHT31;53438;48.898;2.308;2023-11-19T12:15:03;15.26;65.64
66582;SHT31;53438;48.898;2.308;2023-11-19T12:20:00;15.22;65.76
66582;SHT31;53438;48.898;2.308;2023-11-19T12:22:25;15.23;65.40
66582;SHT31;53438;48.898;2.308;2023-11-19T12:24:53;15.24;65.40
66582;SHT31;53438;48.898;2.308;2023-11-19T12:27:19;15.16;64.80
66582;SHT31;53438;48.898;2.308;2023-11-19T12:29:47;15.20;65.73
66582;SHT31;53438;48.898;2.308;2023-11-19T12:32:12;15.20;65.70
66582;SHT31;53438;48.898;2.308;2023-11-19T12:34:38;15.22;66.02
66582;SHT31;53438;48.898;2.308;2023-11-19T12:37:04;15.20;66.51
66582;SHT31;53438;48.898;2.308;2023-11-19T12:39:30;15.14;66.47
66582;SHT31;53438;48.898;2.308;2023-11-19T12:41:55;15.19;66.75
66582;SHT31;53438;48.898;2.308;2023-11-19T12:44:22;15.14;66.79
66582;SHT31;53438;48.898;2.308;2023-11-19T12:47:07;15.16;66.55
66582;SHT31;53438;48.898;2.308;2023-11-19T12:49:33;15.14;66.96
66582;SHT31;53438;48.898;2.308;2023-11-19T12:51:59;15.16;66.30
66582;SHT31;53438;48.898;2.308;2023-11-19T12:54:37;15.12;66.47
66582;SHT31;53438;48.898;2.308;2023-11-19T12:57:04;15.12;66.53
66582;SHT31;53438;48.898;2.308;2023-11-19T12:59:30;15.18;66.95
66582;SHT31;53438;48.898;2.308;2023-11-19T13:01:59;15.18;67.53
66582;SHT31;53438;48.898;2.308;2023-11-19T13:04:29;15.20;67.26
66582;SHT31;53438;48.898;2.308;2023-11-19T13:06:58;15.19;67.24
66582;SHT31;53438;48.898;2.308;2023-11-19T13:09:27;15.20;67.12
66582;SHT31;53438;48.898;2.308;2023-11-19T13:11:54;15.26;65.99
66582;SHT31;53438;48.898;2.308;2023-11-19T13:14:20;15.33;65.77
66582;SHT31;53438;48.898;2.308;2023-11-19T13:16:46;15.43;66.52
66582;SHT31;53438;48.898;2.308;2023-11-19T13:19:12;15.47;65.97
66582;SHT31;53438;48.898;2.308;2023-11-19T13:21:38;15.57;65.71
66582;SHT31;53438;48.898;2.308;2023-11-19T13:24:05;15.64;65.70
66582;SHT31;53438;48.898;2.308;2023-11-19T13:26:31;15.67;65.55
66582;SHT31;53438;48.898;2.308;2023-11-19T13:28:56;15.72;64.72
66582;SHT31;53438;48.898;2.308;2023-11-19T13:31:22;15.68;64.18
66582;SHT31;53438;48.898;2.308;2023-11-19T13:33:47;15.60;64.26
66582;SHT31;53438;48.898;2.308;2023-11-19T13:36:12;15.70;65.32
66582;SHT31;53438;48.898;2.308;2023-11-19T13:38:38;15.68;64.35
66582;SHT31;53438;48.898;2.308;2023-11-19T13:41:06;15.65;64.33
66582;SHT31;53438;48.898;2.308;2023-11-19T13:43:31;15.44;64.21
66582;SHT31;53438;48.898;2.308;2023-11-19T13:45:57;15.50;65.36
66582;SHT31;53438;48.898;2.308;2023-11-19T13:48:25;15.44;65.56
66582;SHT31;53438;48.898;2.308;2023-11-19T13:50:52;15.46;65.79
66582;SHT31;53438;48.898;2.308;2023-11-19T13:53:17;15.43;66.55
66582;SHT31;53438;48.898;2.308;2023-11-19T13:55:43;15.34;65.93
66582;SHT31;53438;48.898;2.308;2023-11-19T13:58:08;15.36;66.40
66582;SHT31;53438;48.898;2.308;2023-11-19T14:00:34;15.39;65.54
66582;SHT31;53438;48.898;2.308;2023-11-19T14:02:59;15.49;66.61
66582;SHT31;53438;48.898;2.308;2023-11-19T14:05:25;15.36;65.51
66582;SHT31;53438;48.898;2.308;2023-11-19T14:07:50;15.43;64.94
66582;SHT31;53438;48.898;2.308;2023-11-19T14:10:17;15.36;64.47
66582;SHT31;53438;48.898;2.308;2023-11-19T14:12:42;15.34;63.72
66582;SHT31;53438;48.898;2.308;2023-11-19T14:15:09;15.27;64.53
66582;SHT31;53438;48.898;2.308;2023-11-19T14:17:37;15.27;65.04
66582;SHT31;53438;48.898;2.308;2023-11-19T14:20:03;15.27;64.92
66582;SHT31;53438;48.898;2.308;2023-11-19T14:22:38;15.24;64.92
66582;SHT31;53438;48.898;2.308;2023-11-19T14:25:03;15.18;64.98
66582;SHT31;53438;48.898;2.308;2023-11-19T14:27:30;15.20;65.39
66582;SHT31;53438;48.898;2.308;2023-11-19T14:29:55;15.14;65.02
66582;SHT31;53438;48.898;2.308;2023-11-19T14:32:20;15.12;65.29
66582;SHT31;53438;48.898;2.308;2023-11-19T14:34:46;15.14;65.75
66582;SHT31;53438;48.898;2.308;2023-11-19T14:37:11;15.06;64.86
66582;SHT31;53438;48.898;2.308;2023-11-19T14:39:36;15.09;65.41
66582;SHT31;53438;48.898;2.308;2023-11-19T14:42:02;15.14;65.16
66582;SHT31;53438;48.898;2.308;2023-11-19T14:44:30;15.13;64.45
66582;SHT31;53438;48.898;2.308;2023-11-19T14:46:55;15.16;64.21
66582;SHT31;53438;48.898;2.308;2023-11-19T14:49:21;15.18;64.82
66582;SHT31;53438;48.898;2.308;2023-11-19T14:51:46;15.19;65.08
66582;SHT31;53438;48.898;2.308;2023-11-19T14:54:11;15.26;64.73
66582;SHT31;53438;48.898;2.308;2023-11-19T14:56:39;15.29;64.02
66582;SHT31;53438;48.898;2.308;2023-11-19T14:59:04;15.33;64.03
66582;SHT31;53438;48.898;2.308;2023-11-19T15:01:30;15.31;63.45
66582;SHT31;53438;48.898;2.308;2023-11-19T15:03:55;15.36;64.23
66582;SHT31;53438;48.898;2.308;2023-11-19T15:06:24;15.31;64.33
66582;SHT31;53438;48.898;2.308;2023-11-19T15:08:52;15.33;63.90
66582;SHT31;53438;48.898;2.308;2023-11-19T15:11:17;15.39;64.51
66582;SHT31;53438;48.898;2.308;2023-11-19T15:13:42;15.29;64.39
66582;SHT31;53438;48.898;2.308;2023-11-19T15:16:08;15.20;64.13
66582;SHT31;53438;48.898;2.308;2023-11-19T15:18:37;15.23;65.23
66582;SHT31;53438;48.898;2.308;2023-11-19T15:21:03;15.20;64.96
66582;SHT31;53438;48.898;2.308;2023-11-19T15:23:28;15.22;65.33
66582;SHT31;53438;48.898;2.308;2023-11-19T15:25:54;15.30;65.04
66582;SHT31;53438;48.898;2.308;2023-11-19T15:28:20;15.26;65.57
66582;SHT31;53438;48.898;2.308;2023-11-19T15:30:45;15.23;65.27
66582;SHT31;53438;48.898;2.308;2023-11-19T15:33:11;15.22;65.55
66582;SHT31;53438;48.898;2.308;2023-11-19T15:35:37;15.20;65.16
66582;SHT31;53438;48.898;2.308;2023-11-19T15:38:04;15.27;65.37
66582;SHT31;53438;48.898;2.308;2023-11-19T15:40:30;15.19;65.46
66582;SHT31;53438;48.898;2.308;2023-11-19T15:42:55;15.16;65.47
66582;SHT31;53438;48.898;2.308;2023-11-19T15:45:22;15.10;65.23
66582;SHT31;53438;48.898;2.308;2023-11-19T15:47:49;15.18;65.61
66582;SHT31;53438;48.898;2.308;2023-11-19T15:50:14;15.09;65.40
66582;SHT31;53438;48.898;2.308;2023-11-19T15:52:40;15.06;65.91
66582;SHT31;53438;48.898;2.308;2023-11-19T15:55:05;15.14;65.77
66582;SHT31;53438;48.898;2.308;2023-11-19T15:57:30;15.16;66.13
66582;SHT31;53438;48.898;2.308;2023-11-19T15:59:56;14.96;66.33
66582;SHT31;53438;48.898;2.308;2023-11-19T16:02:22;15.09;66.83
66582;SHT31;53438;48.898;2.308;2023-11-19T16:04:47;15.00;66.71
66582;SHT31;53438;48.898;2.308;2023-11-19T16:07:16;15.12;66.85
66582;SHT31;53438;48.898;2.308;2023-11-19T16:09:43;15.02;67.12
66582;SHT31;53438;48.898;2.308;2023-11-19T16:12:08;15.02;67.28
66582;SHT31;53438;48.898;2.308;2023-11-19T16:14:36;14.99;67.39
66582;SHT31;53438;48.898;2.308;2023-11-19T16:17:01;15.03;67.86
66582;SHT31;53438;48.898;2.308;2023-11-19T16:19:28;14.92;67.87
66582;SHT31;53438;48.898;2.308;2023-11-19T16:21:53;15.09;68.11
66582;SHT31;53438;48.898;2.308;2023-11-19T16:24:19;14.91;68.58
66582;SHT31;53438;48.898;2.308;2023-11-19T16:26:44;14.79;68.77
66582;SHT31;53438;48.898;2.308;2023-11-19T16:29:10;14.79;69.13
66582;SHT31;53438;48.898;2.308;2023-11-19T16:31:35;14.69;69.03
66582;SHT31;53438;48.898;2.308;2023-11-19T16:34:01;14.76;69.40
66582;SHT31;53438;48.898;2.308;2023-11-19T16:36:26;14.81;69.59
66582;SHT31;53438;48.898;2.308;2023-11-19T16:38:52;14.78;69.75
66582;SHT31;53438;48.898;2.308;2023-11-19T16:41:20;14.75;69.18
66582;SHT31;53438;48.898;2.308;2023-11-19T16:43:47;14.73;69.40
66582;SHT31;53438;48.898;2.308;2023-11-19T16:46:14;14.65;69.64
66582;SHT31;53438;48.898;2.308;2023-11-19T16:48:39;14.69;69.94
66582;SHT31;53438;48.898;2.308;2023-11-19T16:51:10;14.71;69.53
66582;SHT31;53438;48.898;2.308;2023-11-19T16:53:47;14.61;70.09
66582;SHT31;53438;48.898;2.308;2023-11-19T16:56:16;14.69;70.62
66582;SHT31;53438;48.898;2.308;2023-11-19T16:58:42;14.58;70.65
66582;SHT31;53438;48.898;2.308;2023-11-19T17:01:13;14.67;70.64
66582;SHT31;53438;48.898;2.308;2023-11-19T17:03:39;14.55;70.81
66582;SHT31;53438;48.898;2.308;2023-11-19T17:06:05;14.61;70.85
66582;SHT31;53438;48.898;2.308;2023-11-19T17:08:32;14.71;70.47
66582;SHT31;53438;48.898;2.308;2023-11-19T17:11:00;14.82;70.63
66582;SHT31;53438;48.898;2.308;2023-11-19T17:13:25;14.60;70.70
66582;SHT31;53438;48.898;2.308;2023-11-19T17:15:51;14.69;71.21
66582;SHT31;53438;48.898;2.308;2023-11-19T17:18:16;14.71;70.92
66582;SHT31;53438;48.898;2.308;2023-11-19T17:20:42;14.73;70.92
66582;SHT31;53438;48.898;2.308;2023-11-19T17:23:08;14.62;71.29
66582;SHT31;53438;48.898;2.308;2023-11-19T17:25:33;14.49;71.37
66582;SHT31;53438;48.898;2.308;2023-11-19T17:27:59;14.41;71.74
66582;SHT31;53438;48.898;2.308;2023-11-19T17:30:25;14.54;71.67
66582;SHT31;53438;48.898;2.308;2023-11-19T17:32:50;14.48;71.86
66582;SHT31;53438;48.898;2.308;2023-11-19T17:35:15;14.58;72.05
66582;SHT31;53438;48.898;2.308;2023-11-19T17:37:41;14.62;72.19
66582;SHT31;53438;48.898;2.308;2023-11-19T17:40:07;14.49;72.27
66582;SHT31;53438;48.898;2.308;2023-11-19T17:42:34;14.41;72.34
66582;SHT31;53438;48.898;2.308;2023-11-19T17:44:59;14.44;73.02
66582;SHT31;53438;48.898;2.308;2023-11-19T17:47:25;14.61;72.58
66582;SHT31;53438;48.898;2.308;2023-11-19T17:49:51;14.62;72.59
66582;SHT31;53438;48.898;2.308;2023-11-19T17:52:17;14.52;72.69
66582;SHT31;53438;48.898;2.308;2023-11-19T17:54:44;14.46;72.94
66582;SHT31;53438;48.898;2.308;2023-11-19T17:57:10;14.51;72.90
66582;SHT31;53438;48.898;2.308;2023-11-19T17:59:35;14.52;72.95
66582;SHT31;53438;48.898;2.308;2023-11-19T18:02:00;14.51;72.92
66582;SHT31;53438;48.898;2.308;2023-11-19T18:04:27;14.38;73.19
66582;SHT31;53438;48.898;2.308;2023-11-19T18:06:53;14.24;73.44
66582;SHT31;53438;48.898;2.308;2023-11-19T18:09:18;14.20;73.92
66582;SHT31;53438;48.898;2.308;2023-11-19T18:11:44;14.37;73.72
66582;SHT31;53438;48.898;2.308;2023-11-19T18:14:15;14.31;73.85
66582;SHT31;53438;48.898;2.308;2023-11-19T18:16:40;14.20;74.23
66582;SHT31;53438;48.898;2.308;2023-11-19T18:19:06;14.30;74.30
66582;SHT31;53438;48.898;2.308;2023-11-19T18:21:31;14.23;74.13
66582;SHT31;53438;48.898;2.308;2023-11-19T18:23:58;14.31;74.46
66582;SHT31;53438;48.898;2.308;2023-11-19T18:26:24;14.21;74.36
66582;SHT31;53438;48.898;2.308;2023-11-19T18:28:49;14.23;74.37
66582;SHT31;53438;48.898;2.308;2023-11-19T18:31:15;14.20;74.34
66582;SHT31;53438;48.898;2.308;2023-11-19T18:33:40;14.16;74.14
66582;SHT31;53438;48.898;2.308;2023-11-19T18:36:06;14.18;74.45
66582;SHT31;53438;48.898;2.308;2023-11-19T18:38:32;14.13;74.55
66582;SHT31;53438;48.898;2.308;2023-11-19T18:40:57;14.35;74.85
66582;SHT31;53438;48.898;2.308;2023-11-19T18:43:23;14.25;74.67
66582;SHT31;53438;48.898;2.308;2023-11-19T18:45:48;14.25;74.68
66582;SHT31;53438;48.898;2.308;2023-11-19T18:48:13;14.28;74.28